Time;durP1;ratioP1;P1;durP2;ratioP2;P2;SDS_P1;SDS_P2;PMS_P1;PMS_P2;Temp;Humidity;BMP_temperature;BMP_pressure;BME280_temperature;BME280_humidity;BME280_pressure;Samples;Min_cycle;Max_cycle;Signal;HPM_P1;HPM_P2
2023/01/24 00:00:22;;;;;;;54.70;22.15;;;;;;;-0.71;100.00;97074.31;1026447;28;20516;-72
2023/01/24 00:00:52;;;;;;;53.80;20.02;;;;;;;-0.76;100.00;97071.41;1035405;28;20045;-70
2023/01/24 00:01:23;;;;;;;57.45;21.42;;;;;;;-0.71;100.00;97083.81;1034338;28;20514;-71
2023/01/24 00:01:54;;;;;;;52.05;21.58;;;;;;;-0.73;100.00;97085.75;1038858;28;20117;-72
2023/01/24 00:02:24;;;;;;;58.22;21.48;;;;;;;-0.76;100.00;97081.72;1038777;28;20030;-71
2023/01/24 00:02:55;;;;;;;58.47;22.88;;;;;;;-0.73;100.00;97080.59;1031944;28;20076;-72
2023/01/24 00:03:25;;;;;;;56.05;21.45;;;;;;;-0.76;100.00;97074.00;1030523;28;20503;-70
2023/01/24 00:03:56;;;;;;;56.25;21.27;;;;;;;-0.78;100.00;97081.06;1038887;28;20595;-73
2023/01/24 00:04:26;;;;;;;51.83;21.10;;;;;;;-0.79;100.00;97076.88;1032373;28;20069;-71
2023/01/24 00:04:57;;;;;;;64.05;22.58;;;;;;;-0.78;100.00;97077.69;1034871;28;20049;-72
2023/01/24 00:05:27;;;;;;;61.70;23.17;;;;;;;-0.76;100.00;97079.16;1033963;28;20550;-69
2023/01/24 00:05:58;;;;;;;64.95;23.17;;;;;;;-0.77;100.00;97069.81;1022320;28;20715;-72
2023/01/24 00:06:28;;;;;;;63.03;22.92;;;;;;;-0.76;100.00;97084.28;1030685;28;20546;-71
2023/01/24 00:06:59;;;;;;;64.18;23.17;;;;;;;-0.74;100.00;97084.13;1026679;28;20035;-72
2023/01/24 00:07:30;;;;;;;57.17;22.20;;;;;;;-0.81;100.00;97068.50;1030772;28;20037;-71
2023/01/24 00:08:00;;;;;;;57.50;21.30;;;;;;;-0.74;100.00;97079.81;1034656;28;20308;-72
2023/01/24 00:08:31;;;;;;;63.45;23.90;;;;;;;-0.75;100.00;97072.22;1026510;28;20555;-73
2023/01/24 00:09:01;;;;;;;64.45;22.38;;;;;;;-0.73;100.00;97078.84;1026920;28;20031;-73
2023/01/24 00:09:32;;;;;;;60.45;22.50;;;;;;;-0.72;100.00;97077.84;1034392;28;20081;-69
2023/01/24 00:10:02;;;;;;;60.63;22.33;;;;;;;-0.72;100.00;97075.28;1030297;28;20836;-71
2023/01/24 00:10:33;;;;;;;58.72;22.38;;;;;;;-0.73;100.00;97071.09;1030719;28;20028;-71
2023/01/24 00:11:05;;;;;;;61.22;21.48;;;;;;;-0.75;100.00;97075.59;1030381;28;20121;-71
2023/01/24 00:11:36;;;;;;;63.60;23.14;;;;;;;-0.74;100.00;97074.66;1026681;28;20023;-69
2023/01/24 00:12:06;;;;;;;61.75;23.50;;;;;;;-0.76;100.00;97073.19;1034454;28;20049;-71
2023/01/24 00:12:37;;;;;;;60.15;22.23;;;;;;;-0.73;100.00;97076.25;1030587;28;20071;-71
2023/01/24 00:13:10;;;;;;;61.15;22.42;;;;;;;-0.73;100.00;97076.25;1034587;28;20029;-70
2023/01/24 00:13:40;;;;;;;62.28;23.52;;;;;;;-0.72;100.00;97080.44;1038619;28;20025;-73
2023/01/24 00:14:11;;;;;;;58.33;23.08;;;;;;;-0.73;100.00;97078.84;1026603;28;20117;-70
2023/01/24 00:14:41;;;;;;;61.75;22.25;;;;;;;-0.79;100.00;97068.34;1034613;28;20113;-71
2023/01/24 00:15:12;;;;;;;61.00;23.00;;;;;;;-0.74;100.00;97074.66;1030399;28;20024;-71
2023/01/24 00:15:42;;;;;;;50.95;20.83;;;;;;;-0.75;100.00;97073.03;1026148;28;20414;-72
2023/01/24 00:16:18;;;;;;;55.70;21.40;;;;;;;-0.74;100.00;97076.41;1028105;28;20384;-72
2023/01/24 00:16:48;;;;;;;64.74;23.16;;;;;;;-0.73;100.00;97078.84;1034670;28;20105;-71
2023/01/24 00:17:19;;;;;;;56.53;21.52;;;;;;;-0.75;100.00;97077.38;1038862;28;20053;-70
2023/01/24 00:17:53;;;;;;;57.63;21.85;;;;;;;-0.74;100.00;97076.41;1038181;28;20017;-70
2023/01/24 00:18:23;;;;;;;72.88;24.72;;;;;;;-0.76;100.00;97081.72;1026543;28;20050;-72
2023/01/24 00:18:54;;;;;;;62.83;22.52;;;;;;;-0.75;100.00;97077.38;1030659;28;20019;-72
2023/01/24 00:19:24;;;;;;;70.68;22.67;;;;;;;-0.76;100.00;97076.56;1030428;28;20022;-71
2023/01/24 00:19:55;;;;;;;53.95;21.33;;;;;;;-0.81;100.00;97067.69;1042136;28;20024;-72
2023/01/24 00:20:25;;;;;;;63.92;22.60;;;;;;;-0.78;100.00;97073.34;1034344;28;20029;-72
2023/01/24 00:21:04;;;;;;;60.55;21.23;;;;;;;-0.78;100.00;97073.34;1038751;28;20018;-71
2023/01/24 00:21:34;;;;;;;60.12;21.28;;;;;;;-0.82;100.00;97066.88;1037375;28;20036;-71
2023/01/24 00:22:06;;;;;;;65.40;22.25;;;;;;;-0.82;100.00;97066.88;1034418;28;20018;-73
2023/01/24 00:22:37;;;;;;;60.04;21.12;;;;;;;-0.80;100.00;97069.31;1035009;28;20022;-70
2023/01/24 00:23:07;;;;;;;62.30;21.60;;;;;;;-0.80;100.00;97072.69;1024272;28;20486;-72
2023/01/24 00:23:41;;;;;;;62.08;22.05;;;;;;;-0.79;100.00;97076.06;1038813;28;20374;-72
2023/01/24 00:24:12;;;;;;;58.22;20.76;;;;;;;-0.80;100.00;97075.28;1034723;28;20037;-71
2023/01/24 00:24:42;;;;;;;58.47;22.25;;;;;;;-0.78;100.00;97078.47;1030413;28;20137;-69
2023/01/24 00:25:13;;;;;;;59.78;22.88;;;;;;;-0.77;100.00;97077.53;1034638;28;20370;-75
2023/01/24 00:25:43;;;;;;;62.55;22.48;;;;;;;-0.83;100.00;97065.28;1029934;28;20113;-71
2023/01/24 00:26:14;;;;;;;65.88;23.02;;;;;;;-0.78;100.00;97067.38;1034571;28;20018;-72
2023/01/24 00:26:45;;;;;;;61.86;22.84;;;;;;;-0.75;100.00;97075.59;1030393;28;20105;-73
2023/01/24 00:27:16;;;;;;;64.20;22.75;;;;;;;-0.75;100.00;97073.03;1030549;28;20105;-72
2023/01/24 00:27:46;;;;;;;66.22;21.52;;;;;;;-0.81;100.00;97068.50;1030375;28;20480;-70
2023/01/24 00:28:17;;;;;;;65.78;23.20;;;;;;;-0.77;100.00;97071.56;1034594;28;20340;-74
2023/01/24 00:28:47;;;;;;;70.85;23.63;;;;;;;-0.76;100.00;97068.03;1030391;28;20053;-71
2023/01/24 00:29:18;;;;;;;66.80;23.67;;;;;;;-0.76;100.00;97068.84;1030711;28;20014;-71
2023/01/24 00:29:48;;;;;;;66.72;22.52;;;;;;;-0.75;100.00;97067.06;1027805;28;20023;-69
2023/01/24 00:30:19;;;;;;;69.85;24.63;;;;;;;-0.76;100.00;97071.41;1038535;28;20530;-74
2023/01/24 00:30:50;;;;;;;65.75;23.70;;;;;;;-0.77;100.00;97068.97;1038684;28;20091;-72
2023/01/24 00:31:20;;;;;;;62.05;23.52;;;;;;;-0.78;100.00;97078.47;1030555;28;20109;-71
2023/01/24 00:31:51;;;;;;;63.92;22.40;;;;;;;-0.79;100.00;97082.03;1026406;28;20070;-72
2023/01/24 00:32:21;;;;;;;60.95;21.73;;;;;;;-0.76;100.00;97078.34;1030615;28;20054;-73
2023/01/24 00:32:51;;;;;;;61.60;23.40;;;;;;;-0.76;100.00;97074.00;1026549;28;20022;-72
2023/01/24 00:33:22;;;;;;;64.32;23.00;;;;;;;-0.74;100.00;97068.66;1038618;28;20017;-73
2023/01/24 00:33:52;;;;;;;64.28;22.38;;;;;;;-0.77;100.00;97074.97;1030464;28;20019;-71
2023/01/24 00:34:23;;;;;;;61.67;21.52;;;;;;;-0.79;100.00;97070.94;1030627;28;20050;-73
2023/01/24 00:34:53;;;;;;;62.67;23.13;;;;;;;-0.76;100.00;97075.75;1034740;28;20613;-71
2023/01/24 00:35:24;;;;;;;58.38;22.05;;;;;;;-0.76;100.00;97070.59;1030915;28;20575;-74
2023/01/24 00:35:54;;;;;;;56.70;22.02;;;;;;;-0.76;100.00;97075.75;1038026;28;20029;-71
2023/01/24 00:36:25;;;;;;;66.43;22.05;;;;;;;-0.78;100.00;97073.34;1038807;28;20084;-70
2023/01/24 00:36:55;;;;;;;61.45;23.20;;;;;;;-0.87;100.00;97061.41;1038536;28;20559;-71
2023/01/24 00:37:26;;;;;;;61.78;22.20;;;;;;;-0.78;100.00;97073.34;1026869;28;20031;-72
2023/01/24 00:37:56;;;;;;;63.70;23.17;;;;;;;-0.77;100.00;97069.81;1026494;28;20444;-71
2023/01/24 00:38:36;;;;;;;66.54;23.12;;;;;;;-0.80;100.00;97059.81;1030466;28;20056;-71
2023/01/24 00:39:06;;;;;;;70.32;23.60;;;;;;;-0.77;100.00;97069.81;1034486;28;20037;-71
2023/01/24 00:39:37;;;;;;;61.90;24.08;;;;;;;-0.76;100.00;97071.41;1026478;28;20065;-71
2023/01/24 00:40:11;;;;;;;65.50;22.90;;;;;;;-0.78;100.00;97073.34;1026450;28;20073;-71
2023/01/24 00:40:41;;;;;;;66.10;23.36;;;;;;;-0.75;100.00;97078.16;1036749;28;20030;-69
2023/01/24 00:41:12;;;;;;;63.42;22.23;;;;;;;-0.76;100.00;97075.75;1026297;28;20053;-71
2023/01/24 00:41:43;;;;;;;64.97;23.52;;;;;;;-0.77;100.00;97066.41;1042191;28;20071;-73
2023/01/24 00:42:13;;;;;;;66.20;22.35;;;;;;;-0.74;100.00;97073.81;1035450;28;20041;-74
2023/01/24 00:42:44;;;;;;;64.78;23.02;;;;;;;-0.74;100.00;97077.22;1026533;28;20167;-71
2023/01/24 00:43:14;;;;;;;62.88;21.15;;;;;;;-0.73;100.00;97073.69;1026573;28;20142;-72
2023/01/24 00:43:45;;;;;;;70.50;23.10;;;;;;;-0.73;100.00;97076.25;1026661;28;20047;-71
2023/01/24 00:44:15;;;;;;;65.38;23.48;;;;;;;-0.73;100.00;97076.25;1038419;28;20021;-73
2023/01/24 00:44:46;;;;;;;64.40;22.90;;;;;;;-0.75;100.00;97075.59;1038533;28;20164;-71
2023/01/24 00:45:16;;;;;;;64.00;22.20;;;;;;;-0.74;100.00;97084.13;1038451;28;20030;-70
2023/01/24 00:45:47;;;;;;;66.38;23.23;;;;;;;-0.77;100.00;97080.13;1033896;28;20142;-73
2023/01/24 00:46:17;;;;;;;60.33;22.42;;;;;;;-0.82;100.00;97071.25;1030594;28;20097;-74
2023/01/24 00:46:51;;;;;;;64.38;21.35;;;;;;;-0.79;100.00;97074.31;1030371;28;20323;-71
2023/01/24 00:47:22;;;;;;;60.42;21.90;;;;;;;-0.80;100.00;97074.47;1027462;28;20027;-73
2023/01/24 00:47:52;;;;;;;64.22;23.10;;;;;;;-0.77;100.00;97082.69;1038648;28;20219;-72
2023/01/24 00:48:23;;;;;;;69.25;23.00;;;;;;;-0.78;100.00;97086.22;1034604;28;20475;-72
2023/01/24 00:48:53;;;;;;;68.32;22.88;;;;;;;-0.76;100.00;97080.91;1034623;28;20503;-71
2023/01/24 00:49:24;;;;;;;64.18;23.20;;;;;;;-0.75;100.00;97083.31;1026088;28;20173;-70
2023/01/24 00:49:54;;;;;;;63.90;21.85;;;;;;;-0.75;100.00;97082.53;1026667;28;20069;-72
2023/01/24 00:50:25;;;;;;;71.07;23.83;;;;;;;-0.74;100.00;97076.41;1026322;28;20130;-72
2023/01/24 00:50:55;;;;;;;59.58;21.73;;;;;;;-0.73;100.00;97086.56;1028889;28;20146;-70
2023/01/24 00:51:26;;;;;;;64.13;23.17;;;;;;;-0.73;100.00;97085.75;1034281;28;20394;-72
2023/01/24 00:51:56;;;;;;;67.07;23.23;;;;;;;-0.78;100.00;97078.47;1037109;28;20451;-71
2023/01/24 00:52:27;;;;;;;61.60;21.83;;;;;;;-0.75;100.00;97093.63;1034473;28;20022;-72
2023/01/24 00:52:57;;;;;;;65.40;24.55;;;;;;;-0.82;100.00;97068.66;1038750;28;20031;-71
2023/01/24 00:53:28;;;;;;;66.05;22.77;;;;;;;-0.75;100.00;97085.91;1034193;28;20061;-70
2023/01/24 00:53:58;;;;;;;59.95;20.92;;;;;;;-0.74;100.00;97089.28;1031001;28;20119;-71
2023/01/24 00:54:29;;;;;;;65.57;22.45;;;;;;;-0.73;100.00;97096.88;1030226;28;20026;-73
2023/01/24 00:54:59;;;;;;;64.25;23.90;;;;;;;-0.79;100.00;97082.03;1034586;28;20025;-71
2023/01/24 00:55:33;;;;;;;65.03;21.77;;;;;;;-0.76;100.00;97086.88;1025784;28;20525;-70
2023/01/24 00:56:04;;;;;;;61.64;21.42;;;;;;;-0.73;100.00;97099.44;1033971;28;20030;-71
2023/01/24 00:56:34;;;;;;;78.66;22.24;;;;;;;-0.76;100.00;97094.59;1034619;28;20625;-71
2023/01/24 00:57:05;;;;;;;68.38;22.95;;;;;;;-0.72;100.00;97095.09;1030326;28;20121;-71
2023/01/24 00:57:35;;;;;;;65.85;21.25;;;;;;;-0.74;100.00;97089.28;1034046;28;20050;-71
2023/01/24 00:58:06;;;;;;;62.83;22.95;;;;;;;-0.73;100.00;97091.72;1026603;28;20563;-71
2023/01/24 00:58:36;;;;;;;65.05;23.05;;;;;;;-0.73;100.00;97090.91;1026390;28;20122;-73
2023/01/24 00:59:07;;;;;;;53.95;20.65;;;;;;;-0.76;100.00;97086.88;1038384;28;20040;-70
2023/01/24 00:59:38;;;;;;;61.17;23.77;;;;;;;-0.75;100.00;97092.81;1034503;28;20121;-71
2023/01/24 01:00:09;;;;;;;58.65;20.90;;;;;;;-0.76;100.00;97102.34;1034388;28;20209;-72
2023/01/24 01:00:39;;;;;;;64.92;22.98;;;;;;;-0.76;100.00;97089.44;1034679;28;20033;-73
2023/01/24 01:01:10;;;;;;;59.80;22.17;;;;;;;-0.75;100.00;97097.97;1031345;28;20037;-74
2023/01/24 01:01:40;;;;;;;62.28;22.33;;;;;;;-0.74;100.00;97091.84;1033617;28;20404;-73
2023/01/24 01:02:11;;;;;;;72.75;23.40;;;;;;;-0.71;100.00;97094.13;1025644;28;20050;-72
2023/01/24 01:02:42;;;;;;;59.15;22.08;;;;;;;-0.76;100.00;97093.81;1026197;28;20027;-71
2023/01/24 01:03:21;;;;;;;63.60;21.75;;;;;;;-0.73;100.00;97094.28;1030455;28;20667;-72
2023/01/24 01:03:58;;;;;;;66.40;22.60;;;;;;;-0.71;100.00;97094.91;1030241;28;20061;-71
2023/01/24 01:04:28;;;;;;;64.24;21.28;;;;;;;-0.73;100.00;97089.13;1038373;28;20284;-72
2023/01/24 01:04:59;;;;;;;66.80;23.17;;;;;;;-0.72;100.00;97092.53;1034712;28;20034;-72
2023/01/24 01:05:30;;;;;;;60.75;21.95;;;;;;;-0.72;100.00;97093.31;1037857;28;20026;-71
2023/01/24 01:06:05;;;;;;;65.30;22.02;;;;;;;-0.72;100.00;97092.53;1034920;28;20483;-73
2023/01/24 01:06:35;;;;;;;55.18;20.68;;;;;;;-0.72;100.00;97087.38;1030433;28;20029;-71
2023/01/24 01:07:06;;;;;;;63.30;23.38;;;;;;;-0.71;100.00;97089.78;1034343;28;20499;-71
2023/01/24 01:07:39;;;;;;;62.47;21.73;;;;;;;-0.71;100.00;97091.53;1030584;28;20094;-72
2023/01/24 01:08:10;;;;;;;59.86;21.36;;;;;;;-0.71;100.00;97094.13;1030115;28;20027;-71
2023/01/24 01:08:40;;;;;;;67.68;22.38;;;;;;;-0.68;100.00;97095.59;1034377;28;20037;-74
2023/01/24 01:09:11;;;;;;;66.35;22.35;;;;;;;-0.71;100.00;97087.19;1034611;28;20041;-72
2023/01/24 01:09:42;;;;;;;68.55;23.73;;;;;;;-0.71;100.00;97094.13;1030195;28;20133;-71
2023/01/24 01:10:12;;;;;;;64.40;22.10;;;;;;;-0.71;100.00;97089.78;1030530;28;20050;-71
2023/01/24 01:10:43;;;;;;;60.75;22.52;;;;;;;-0.67;100.00;97099.75;1030213;28;20050;-72
2023/01/24 01:11:13;;;;;;;65.53;20.73;;;;;;;-0.68;100.00;97095.59;1038290;28;20552;-71
2023/01/24 01:11:44;;;;;;;58.67;22.55;;;;;;;-0.71;100.00;97094.91;1026407;28;20078;-71
2023/01/24 01:12:14;;;;;;;58.47;22.30;;;;;;;-0.72;100.00;97097.66;1034354;28;20188;-74
2023/01/24 01:12:45;;;;;;;59.08;22.27;;;;;;;-0.71;100.00;97094.13;1030457;28;20613;-70
2023/01/24 01:13:15;;;;;;;64.78;21.98;;;;;;;-0.72;100.00;97095.91;1042847;28;20178;-72
2023/01/24 01:13:48;;;;;;;63.80;21.52;;;;;;;-0.72;100.00;97093.31;1034284;28;20030;-70
2023/01/24 01:14:19;;;;;;;61.08;21.92;;;;;;;-0.72;100.00;97098.47;1034556;28;20370;-71
2023/01/24 01:14:49;;;;;;;68.70;23.80;;;;;;;-0.73;100.00;97096.88;1034159;28;20029;-71
2023/01/24 01:15:20;;;;;;;61.53;22.05;;;;;;;-0.71;100.00;97097.50;1030450;28;20038;-72
2023/01/24 01:16:03;;;;;;;65.82;22.58;;;;;;;-0.66;100.00;97096.25;1033858;28;20500;-73
2023/01/24 01:16:37;;;;;;;52.28;20.52;;;;;;;-0.71;100.00;97102.66;1033920;28;20048;-70
2023/01/24 01:17:10;;;;;;;57.74;20.02;;;;;;;-0.72;100.00;97097.66;1034673;28;20026;-70
2023/01/24 01:17:41;;;;;;;57.80;21.20;;;;;;;-0.71;100.00;97104.44;1034442;28;20388;-73
2023/01/24 01:18:11;;;;;;;53.75;21.30;;;;;;;-0.78;100.00;97098.28;1030289;28;20053;-71
2023/01/24 01:18:42;;;;;;;58.78;20.77;;;;;;;-0.72;100.00;97107.97;1030551;28;20029;-69
2023/01/24 01:19:12;;;;;;;65.47;21.60;;;;;;;-0.76;100.00;97092.03;1034375;28;20523;-70
2023/01/24 01:19:43;;;;;;;63.47;22.85;;;;;;;-0.68;100.00;97103.31;1028647;28;20137;-76
2023/01/24 01:20:14;;;;;;;62.33;21.60;;;;;;;-0.69;100.00;97096.56;1030431;28;20018;-70
2023/01/24 01:20:50;;;;;;;60.85;21.08;;;;;;;-0.66;100.00;97101.41;1032652;28;20553;-71
2023/01/24 01:21:21;;;;;;;61.12;21.80;;;;;;;-0.67;100.00;97100.59;1038510;28;20025;-74
2023/01/24 01:21:51;;;;;;;63.40;22.45;;;;;;;-0.69;100.00;97106.88;1026370;28;20011;-71
2023/01/24 01:22:22;;;;;;;58.38;21.23;;;;;;;-0.69;100.00;97102.50;1030313;28;20018;-70
2023/01/24 01:22:52;;;;;;;55.42;21.20;;;;;;;-0.68;100.00;97104.13;1034736;28;20492;-72
2023/01/24 01:23:23;;;;;;;59.75;22.42;;;;;;;-0.69;100.00;97102.50;1033891;28;20023;-70
2023/01/24 01:23:56;;;;;;;58.88;21.67;;;;;;;-0.73;100.00;97102.03;1030594;28;20023;-73
2023/01/24 01:24:27;;;;;;;54.28;22.12;;;;;;;-0.72;100.00;97103.63;1034260;28;20068;-71
2023/01/24 01:24:57;;;;;;;56.47;22.10;;;;;;;-0.71;100.00;97104.44;1029993;28;20216;-71
2023/01/24 01:25:28;;;;;;;55.40;21.05;;;;;;;-0.69;100.00;97106.88;1030053;28;20373;-70
2023/01/24 01:26:03;;;;;;;59.95;21.30;;;;;;;-0.72;100.00;97098.47;1038143;28;20487;-71
2023/01/24 01:26:34;;;;;;;55.20;21.58;;;;;;;-0.71;100.00;97100.06;1028395;28;20073;-72
2023/01/24 01:27:07;;;;;;;58.25;20.48;;;;;;;-0.73;100.00;97101.22;1038330;28;20068;-72
2023/01/24 01:27:38;;;;;;;60.52;21.42;;;;;;;-0.69;100.00;97101.72;1034248;28;20053;-72
2023/01/24 01:28:08;;;;;;;55.70;21.88;;;;;;;-0.72;100.00;97098.47;1034323;28;20475;-71
2023/01/24 01:28:39;;;;;;;56.50;21.48;;;;;;;-0.68;100.00;97108.47;1034229;28;20727;-74
2023/01/24 01:29:09;;;;;;;58.75;21.88;;;;;;;-0.69;100.00;97096.56;1038347;28;20678;-73
2023/01/24 01:29:40;;;;;;;63.00;21.80;;;;;;;-0.67;100.00;97100.59;1030562;28;20027;-71
2023/01/24 01:30:11;;;;;;;62.90;23.70;;;;;;;-0.69;100.00;97101.72;1026095;28;20019;-71
2023/01/24 01:30:41;;;;;;;52.97;19.90;;;;;;;-0.69;100.00;97101.72;1030462;28;20026;-69
2023/01/24 01:31:12;;;;;;;66.43;22.35;;;;;;;-0.68;100.00;97098.16;1034321;28;20113;-71
2023/01/24 01:31:42;;;;;;;60.63;22.05;;;;;;;-0.77;100.00;97087.84;1032524;28;20015;-70
2023/01/24 01:32:13;;;;;;;52.92;21.30;;;;;;;-0.69;100.00;97104.28;1030797;28;20557;-72
2023/01/24 01:32:43;;;;;;;54.50;20.48;;;;;;;-0.69;100.00;97104.28;1034281;28;20021;-71
2023/01/24 01:33:14;;;;;;;69.15;22.40;;;;;;;-0.71;100.00;97105.22;1034093;28;20045;-71
2023/01/24 01:33:44;;;;;;;60.97;21.02;;;;;;;-0.76;100.00;97089.44;1031370;28;20548;-71
2023/01/24 01:34:15;;;;;;;60.55;21.98;;;;;;;-0.69;100.00;97099.13;1038631;28;20471;-73
2023/01/24 01:34:45;;;;;;;56.50;21.10;;;;;;;-0.71;100.00;97104.44;1034634;28;20101;-72
2023/01/24 01:35:16;;;;;;;58.25;20.45;;;;;;;-0.71;100.00;97102.66;1034291;28;20675;-72
2023/01/24 01:35:47;;;;;;;67.90;21.23;;;;;;;-0.71;100.00;97104.44;1029442;28;20410;-70
2023/01/24 01:36:18;;;;;;;60.48;21.28;;;;;;;-0.69;100.00;97101.72;1030527;28;20117;-73
2023/01/24 01:36:51;;;;;;;62.15;21.90;;;;;;;-0.70;100.00;97100.91;1030094;28;20121;-71
2023/01/24 01:37:21;;;;;;;58.58;21.60;;;;;;;-0.69;100.00;97101.72;1024852;28;20027;-72
2023/01/24 01:37:52;;;;;;;64.85;22.48;;;;;;;-0.71;100.00;97105.22;1034536;28;20624;-71
2023/01/24 01:38:24;;;;;;;58.65;20.48;;;;;;;-0.69;100.00;97105.09;1030216;28;20070;-73
2023/01/24 01:38:54;;;;;;;57.42;22.18;;;;;;;-0.71;100.00;97097.50;1030448;28;20070;-71
2023/01/24 01:39:28;;;;;;;62.46;22.06;;;;;;;-0.79;100.00;97084.59;1026140;28;20073;-74
2023/01/24 01:39:59;;;;;;;62.00;20.58;;;;;;;-0.72;100.00;97097.66;1026189;28;20034;-70
2023/01/24 01:40:35;;;;;;;62.04;22.02;;;;;;;-0.77;100.00;97089.59;1027188;28;20632;-74
2023/01/24 01:41:06;;;;;;;61.28;21.68;;;;;;;-0.72;100.00;97098.47;1030134;28;20037;-71
2023/01/24 01:41:36;;;;;;;63.00;20.95;;;;;;;-0.71;100.00;97100.06;1026390;28;20058;-70
2023/01/24 01:42:07;;;;;;;58.90;21.60;;;;;;;-0.72;100.00;97102.81;1030140;28;20081;-71
2023/01/24 01:42:46;;;;;;;67.47;23.67;;;;;;;-0.71;100.00;97094.91;1026283;28;20061;-73
2023/01/24 01:43:18;;;;;;;58.96;21.18;;;;;;;-0.73;100.00;97102.03;1034496;28;20072;-73
2023/01/24 01:44:38;;;;;;;57.46;20.68;;;;;;;-0.71;100.00;97091.53;1034394;28;20029;-71
2023/01/24 01:45:42;;;;;;;58.10;21.27;;;;;;;-0.68;100.00;97095.59;1026286;28;20449;-72
2023/01/24 01:46:19;;;;;;;55.62;20.42;;;;;;;-0.69;100.00;97096.56;1030116;28;20265;-72
2023/01/24 01:46:50;;;;;;;59.98;20.54;;;;;;;-0.71;100.00;97100.06;1034213;28;20122;-73
2023/01/24 01:47:29;;;;;;;72.85;24.90;;;;;;;-0.71;100.00;97097.50;1033165;28;20018;-71
2023/01/24 01:48:19;;;;;;;65.30;21.28;;;;;;;-0.68;100.00;97096.38;1029986;28;20031;-73
2023/01/24 01:48:51;;;;;;;55.63;20.83;;;;;;;-0.69;100.00;97097.34;1034406;28;20503;-73
2023/01/24 01:49:23;;;;;;;61.84;21.28;;;;;;;-0.68;100.00;97100.75;1034085;28;20502;-70
2023/01/24 01:49:59;;;;;;;57.76;21.42;;;;;;;-0.71;100.00;97097.50;1026156;28;20093;-73
2023/01/24 01:50:32;;;;;;;62.06;20.98;;;;;;;-0.71;100.00;97100.06;1030257;28;20033;-72
2023/01/24 01:51:02;;;;;;;52.46;20.60;;;;;;;-0.69;100.00;97096.56;1029496;28;20026;-70
2023/01/24 01:51:45;;;;;;;56.78;21.88;;;;;;;-0.69;100.00;97093.97;1022396;28;20219;-71
2023/01/24 01:52:15;;;;;;;64.82;22.74;;;;;;;-0.65;100.00;97097.84;1025167;28;20079;-69
2023/01/24 01:52:46;;;;;;;67.07;23.17;;;;;;;-0.71;100.00;97100.06;1030066;28;20830;-72
2023/01/24 01:53:16;;;;;;;61.67;22.13;;;;;;;-0.68;100.00;97098.16;1030365;28;20026;-72
2023/01/24 01:53:56;;;;;;;60.15;22.63;;;;;;;-0.68;100.00;97098.97;1021924;28;20027;-74
2023/01/24 01:54:31;;;;;;;57.48;21.14;;;;;;;-0.83;100.00;97075.59;1029498;28;20038;-74
2023/01/24 01:55:05;;;;;;;59.14;21.56;;;;;;;-0.69;100.00;97110.25;1026112;28;20555;-70
2023/01/24 01:55:36;;;;;;;61.08;22.06;;;;;;;-0.67;100.00;97104.91;1029673;28;20022;-72
2023/01/24 01:56:23;;;;;;;62.52;21.68;;;;;;;-0.68;100.00;97096.38;1030394;28;20500;-72
2023/01/24 01:56:57;;;;;;;60.56;21.14;;;;;;;-0.69;100.00;97097.34;1030407;28;20443;-71
2023/01/24 01:57:30;;;;;;;61.98;20.66;;;;;;;-0.68;100.00;97103.31;1033878;28;20117;-71
2023/01/24 01:58:00;;;;;;;58.08;22.16;;;;;;;-0.69;100.00;97097.34;1034202;28;20025;-72
2023/01/24 01:58:31;;;;;;;65.20;22.85;;;;;;;-0.69;100.00;97102.50;1038350;28;20544;-72
2023/01/24 01:59:04;;;;;;;60.05;21.65;;;;;;;-0.68;100.00;97103.31;1030018;28;20022;-70
2023/01/24 01:59:38;;;;;;;63.84;22.16;;;;;;;-0.69;100.00;97106.88;1030450;28;20025;-73
2023/01/24 02:00:13;;;;;;;54.36;20.98;;;;;;;-0.68;100.00;97098.16;1034016;28;20025;-73
2023/01/24 02:00:49;;;;;;;65.80;20.50;;;;;;;-0.68;100.00;97104.13;1034551;28;20022;-73
2023/01/24 02:01:20;;;;;;;62.24;21.18;;;;;;;-0.68;100.00;97098.16;1033124;28;20350;-75
2023/01/24 02:01:51;;;;;;;56.60;21.77;;;;;;;-0.72;100.00;97095.09;1033276;28;20025;-76
2023/01/24 02:02:21;;;;;;;55.47;21.33;;;;;;;-0.68;100.00;97105.88;1029848;28;20019;-70
2023/01/24 02:03:37;;;;;;;58.33;21.85;;;;;;;-0.68;100.00;97105.88;1029002;28;20475;-71
2023/01/24 02:03:53;;;;;;;62.44;21.08;;;;;;;-0.68;100.00;97108.47;1034464;28;20365;-72
2023/01/24 02:04:31;;;;;;;63.06;21.72;;;;;;;-0.68;100.00;97103.31;1030089;28;20100;-71
2023/01/24 02:05:04;;;;;;;68.58;22.18;;;;;;;-0.75;100.00;97098.78;1034586;28;20022;-72
2023/01/24 02:05:34;;;;;;;68.68;22.58;;;;;;;-0.68;100.00;97106.69;1032703;28;20515;-73
2023/01/24 02:06:17;;;;;;;57.53;20.30;;;;;;;-0.68;100.00;97103.31;1031597;28;20064;-72
2023/01/24 02:06:47;;;;;;;59.44;21.50;;;;;;;-0.69;100.00;97106.88;1031262;28;20019;-74
2023/01/24 02:07:21;;;;;;;61.17;21.73;;;;;;;-0.64;100.00;97107.97;1031071;28;20663;-72
2023/01/24 02:07:59;;;;;;;72.60;22.68;;;;;;;-0.66;100.00;97104.78;1032660;28;20122;-72
2023/01/24 02:08:29;;;;;;;61.36;21.28;;;;;;;-0.64;100.00;97104.59;1036706;28;20043;-72
2023/01/24 02:09:01;;;;;;;61.85;21.88;;;;;;;-0.66;100.00;97107.34;1032473;28;20101;-70
2023/01/24 02:09:33;;;;;;;62.86;22.52;;;;;;;-0.64;100.00;97115.72;1040877;28;20040;-71
2023/01/24 02:10:04;;;;;;;63.58;23.10;;;;;;;-0.65;100.00;97108.16;1036962;28;20026;-71
2023/01/24 02:11:39;;;;;;;58.24;23.20;;;;;;;-0.65;100.00;97105.59;1030126;28;20547;-74
2023/01/24 02:12:31;;;;;;;63.92;22.00;;;;;;;-0.69;100.00;97105.09;1031232;28;20022;-70
2023/01/24 02:13:01;;;;;;;59.16;20.60;;;;;;;-0.69;100.00;97109.44;1030979;28;20057;-71
2023/01/24 02:13:32;;;;;;;65.43;21.52;;;;;;;-0.68;100.00;97108.47;1030907;28;20010;-71
2023/01/24 02:16:32;;;;;;;65.80;21.82;;;;;;;-0.66;100.00;97106.56;1037733;28;20017;-73
2023/01/24 02:17:02;;;;;;;61.22;21.77;;;;;;;-0.66;100.00;97101.41;1034503;28;20531;-75
2023/01/24 02:17:33;;;;;;;66.18;22.48;;;;;;;-0.67;100.00;97105.75;1030605;28;20547;-72
2023/01/24 02:18:04;;;;;;;66.35;22.33;;;;;;;-0.67;100.00;97112.66;1036172;28;20029;-70
2023/01/24 02:18:36;;;;;;;63.76;21.60;;;;;;;-0.67;100.00;97113.47;1030749;28;20030;-73
2023/01/24 02:19:07;;;;;;;72.32;23.36;;;;;;;-0.68;100.00;97105.88;1034158;28;20022;-73
2023/01/24 02:19:46;;;;;;;64.07;22.60;;;;;;;-0.68;100.00;97108.47;1030302;28;20280;-70
2023/01/24 02:20:28;;;;;;;63.10;21.74;;;;;;;-0.71;100.00;97105.22;1038241;28;20410;-73
2023/01/24 02:20:58;;;;;;;63.16;21.26;;;;;;;-0.69;100.00;97101.72;1030128;28;20042;-71
2023/01/24 02:21:29;;;;;;;55.92;20.67;;;;;;;-0.67;100.00;97103.19;1033886;28;20519;-73
2023/01/24 02:22:05;;;;;;;60.28;21.65;;;;;;;-0.67;100.00;97102.34;1033799;28;20419;-71
2023/01/24 02:23:20;;;;;;;58.98;21.10;;;;;;;-0.67;100.00;97104.91;1031266;28;20518;-71
2023/01/24 02:24:06;;;;;;;62.36;19.86;;;;;;;-0.66;100.00;97111.72;1028012;28;20037;-73
2023/01/24 02:24:40;;;;;;;59.22;20.58;;;;;;;-0.68;100.00;97106.69;1036362;28;20026;-70
2023/01/24 02:25:29;;;;;;;69.74;21.72;;;;;;;-0.67;100.00;97110.06;1022597;28;20027;-72
2023/01/24 02:26:18;;;;;;;59.28;21.70;;;;;;;-0.70;100.00;97103.50;1030096;28;20065;-73
2023/01/24 02:26:49;;;;;;;57.32;20.18;;;;;;;-0.77;100.00;97097.31;1026700;28;20486;-72
2023/01/24 02:27:19;;;;;;;66.95;22.13;;;;;;;-0.76;100.00;97096.38;1030979;28;20077;-70
2023/01/24 02:27:50;;;;;;;60.58;22.40;;;;;;;-0.69;100.00;97106.88;1026878;28;20030;-72
2023/01/24 02:28:20;;;;;;;62.75;21.95;;;;;;;-0.71;100.00;97107.81;1031124;28;20077;-70
2023/01/24 02:29:06;;;;;;;56.97;20.65;;;;;;;-0.66;100.00;97111.72;1026955;28;20472;-72
2023/01/24 02:29:37;;;;;;;68.94;22.72;;;;;;;-0.78;100.00;97096.53;1035261;28;20483;-71
2023/01/24 02:30:08;;;;;;;66.95;21.77;;;;;;;-0.72;100.00;97110.56;1034225;28;20028;-71
2023/01/24 02:30:39;;;;;;;65.48;21.82;;;;;;;-0.74;100.00;97099.59;1028305;28;20066;-70
2023/01/24 02:31:09;;;;;;;66.00;23.05;;;;;;;-0.96;100.00;97070.88;1031170;28;20034;-72
2023/01/24 02:31:53;;;;;;;58.35;20.75;;;;;;;-0.73;100.00;97101.22;1033776;28;20029;-71